createdAt,value
2022-08-28T00:00:14.887Z,4.63
2022-08-28T00:02:43.002Z,4.50
2022-08-28T00:05:11.653Z,4.50
2022-08-28T00:07:42.296Z,4.15
2022-08-28T00:10:14.573Z,4.05
2022-08-28T00:12:44.248Z,4.40
2022-08-28T00:15:14.190Z,4.47
2022-08-28T00:17:42.140Z,4.10
2022-08-28T00:20:11.443Z,4.30
2022-08-28T00:22:40.067Z,4.15
2022-08-28T00:25:09.531Z,3.63
2022-08-28T00:27:57.291Z,3.80
2022-08-28T00:30:30.033Z,3.85
2022-08-28T00:33:00.207Z,3.63
2022-08-28T00:35:27.939Z,4.00
2022-08-28T00:37:56.631Z,3.67
2022-08-28T00:40:28.659Z,4.20
2022-08-28T00:43:01.653Z,4.00
2022-08-28T00:45:36.005Z,3.72
2022-08-28T00:48:06.514Z,3.92
2022-08-28T00:50:50.456Z,3.90
2022-08-28T00:53:19.407Z,4.17
2022-08-28T00:55:46.863Z,3.75
2022-08-28T00:58:15.098Z,4.40
2022-08-28T01:00:44.063Z,4.13
2022-08-28T01:03:11.717Z,4.15
2022-08-28T01:05:43.406Z,3.73
2022-08-28T01:08:10.982Z,4.53
2022-08-28T01:10:41.487Z,4.13
2022-08-28T01:13:09.023Z,3.67
2022-08-28T01:15:39.091Z,3.53
2022-08-28T01:18:11.280Z,3.77
2022-08-28T01:20:44.636Z,3.95
2022-08-28T01:23:20.230Z,3.97
2022-08-28T01:25:49.058Z,4.40
2022-08-28T01:28:16.748Z,4.00
2022-08-28T01:30:48.374Z,4.07
2022-08-28T01:33:16.387Z,4.18
2022-08-28T01:35:48.419Z,4.00
2022-08-28T01:38:20.151Z,4.30
2022-08-28T01:40:54.270Z,3.97
2022-08-28T01:43:26.068Z,4.00
2022-08-28T01:45:56.207Z,4.78
2022-08-28T01:48:27.055Z,3.88
2022-08-28T01:50:54.698Z,4.18
2022-08-28T01:53:25.606Z,4.20
2022-08-28T01:56:04.490Z,4.57
2022-08-28T01:58:37.437Z,4.20
2022-08-28T02:01:09.530Z,4.20
2022-08-28T02:03:37.184Z,4.10
2022-08-28T02:06:05.123Z,3.90
2022-08-28T02:08:32.659Z,4.23
2022-08-28T02:11:01.480Z,4.57
2022-08-28T02:13:29.007Z,3.88
2022-08-28T02:15:57.890Z,4.75
2022-08-28T02:18:25.521Z,4.53
2022-08-28T02:20:53.165Z,3.80
2022-08-28T02:23:20.738Z,4.72
2022-08-28T02:25:48.406Z,4.47
2022-08-28T02:28:19.619Z,4.50
2022-08-28T02:30:47.202Z,3.97
2022-08-28T02:33:14.746Z,4.70
2022-08-28T02:35:42.968Z,4.78
2022-08-28T02:38:11.553Z,5.43
2022-08-28T02:40:41.951Z,5.40
2022-08-28T02:43:09.745Z,4.60
2022-08-28T02:45:38.543Z,4.80
2022-08-28T02:48:11.956Z,4.05
2022-08-28T02:50:46.102Z,4.50
2022-08-28T02:53:14.654Z,4.30
2022-08-28T02:55:42.126Z,4.13
2022-08-28T02:58:10.078Z,3.80
2022-08-28T03:00:38.952Z,4.00
2022-08-28T03:03:06.424Z,3.58
2022-08-28T03:05:33.928Z,4.43
2022-08-28T03:08:01.410Z,4.63
2022-08-28T03:10:28.927Z,3.77
2022-08-28T03:12:56.387Z,4.13
2022-08-28T03:15:23.849Z,3.85
2022-08-28T03:17:52.653Z,4.13
2022-08-28T03:20:20.487Z,3.97
2022-08-28T03:23:05.788Z,3.93
2022-08-28T03:25:33.262Z,4.38
2022-08-28T03:28:00.714Z,4.05
2022-08-28T03:30:28.235Z,3.80
2022-08-28T03:32:57.129Z,3.40
2022-08-28T03:35:24.571Z,4.00
2022-08-28T03:37:52.064Z,4.25
2022-08-28T03:40:20.237Z,3.03
2022-08-28T03:42:52.998Z,3.80
2022-08-28T03:45:22.146Z,3.33
2022-08-28T03:47:50.805Z,3.30
2022-08-28T03:50:19.993Z,3.38
2022-08-28T03:52:47.708Z,3.47
2022-08-28T03:55:15.704Z,3.40
2022-08-28T03:57:43.150Z,2.83
2022-08-28T04:00:14.047Z,3.00
2022-08-28T04:02:42.046Z,3.08
2022-08-28T04:05:10.983Z,2.70
2022-08-28T04:07:40.366Z,3.35
2022-08-28T04:10:09.043Z,2.60
2022-08-28T04:12:37.062Z,2.50
2022-08-28T04:15:07.065Z,2.30
2022-08-28T04:17:34.783Z,2.47
2022-08-28T04:20:02.254Z,2.15
2022-08-28T04:22:30.664Z,2.97
2022-08-28T04:24:59.489Z,2.90
2022-08-28T04:27:27.038Z,2.47
2022-08-28T04:29:54.522Z,3.10
2022-08-28T04:32:22.383Z,2.88
2022-08-28T04:34:49.863Z,2.63
2022-08-28T04:37:17.910Z,3.07
2022-08-28T04:39:45.414Z,2.38
2022-08-28T04:42:15.960Z,3.22
2022-08-28T04:44:43.474Z,2.40
2022-08-28T04:47:10.971Z,2.17
2022-08-28T04:49:38.771Z,2.53
2022-08-28T04:52:06.429Z,2.20
2022-08-28T04:54:34.799Z,2.67
2022-08-28T04:57:02.642Z,2.80
2022-08-28T04:59:35.846Z,2.63
2022-08-28T05:02:05.195Z,2.87
2022-08-28T05:04:32.716Z,2.30
2022-08-28T05:07:00.203Z,2.80
2022-08-28T05:09:27.701Z,2.67
2022-08-28T05:11:55.324Z,2.65
2022-08-28T05:14:22.811Z,2.80
2022-08-28T05:16:53.833Z,2.47
2022-08-28T05:19:21.880Z,2.85
2022-08-28T05:21:49.861Z,2.67
2022-08-28T05:24:17.952Z,2.80
2022-08-28T05:26:48.013Z,3.03
2022-08-28T05:29:16.653Z,2.28
2022-08-28T05:31:44.546Z,2.72
2022-08-28T05:34:16.266Z,3.05
2022-08-28T05:36:44.050Z,2.97
2022-08-28T05:39:13.353Z,2.23
2022-08-28T05:41:43.088Z,2.80
2022-08-28T05:44:12.798Z,2.55
2022-08-28T05:46:44.360Z,2.20
2022-08-28T05:49:13.025Z,2.80
2022-08-28T05:51:42.933Z,2.80
2022-08-28T05:54:11.725Z,2.22
2022-08-28T05:56:40.672Z,2.85
2022-08-28T05:59:08.991Z,2.60
2022-08-28T06:01:40.267Z,2.95
2022-08-28T06:04:09.667Z,3.10
2022-08-28T06:06:39.489Z,2.60
2022-08-28T06:09:11.737Z,2.72
2022-08-28T06:11:44.011Z,2.78
2022-08-28T06:14:15.773Z,2.65
2022-08-28T06:16:47.062Z,3.10
2022-08-28T06:19:15.190Z,3.13
2022-08-28T06:21:44.171Z,3.30
2022-08-28T06:24:13.359Z,3.20
2022-08-28T06:26:41.524Z,2.75
2022-08-28T06:29:11.408Z,2.90
2022-08-28T06:31:39.314Z,2.80
2022-08-28T06:34:07.612Z,3.17
2022-08-28T06:36:37.627Z,3.20
2022-08-28T06:39:06.899Z,3.00
2022-08-28T06:41:40.771Z,3.43
2022-08-28T06:44:08.771Z,2.90
2022-08-28T06:46:36.766Z,2.80
2022-08-28T06:49:07.855Z,3.05
2022-08-28T06:51:35.404Z,3.63
2022-08-28T06:54:03.093Z,2.77
2022-08-28T06:56:31.124Z,2.78
2022-08-28T06:59:00.689Z,3.17
2022-08-28T07:01:30.371Z,1.88
2022-08-28T07:04:00.983Z,2.90
2022-08-28T07:06:31.632Z,3.10
2022-08-28T07:08:59.123Z,3.05
2022-08-28T07:11:28.734Z,3.50
2022-08-28T07:13:57.069Z,2.65
2022-08-28T07:16:28.131Z,2.78
2022-08-28T07:18:55.615Z,3.30
2022-08-28T07:21:23.410Z,3.17
2022-08-28T07:23:51.142Z,3.08
2022-08-28T07:26:22.417Z,3.03
2022-08-28T07:28:50.344Z,2.88
2022-08-28T07:31:20.159Z,3.47
2022-08-28T07:33:53.871Z,3.20
2022-08-28T07:36:29.037Z,3.10
2022-08-28T07:38:58.986Z,2.67
2022-08-28T07:41:28.760Z,3.33
2022-08-28T07:44:13.799Z,4.53
2022-08-28T07:46:42.069Z,4.40
2022-08-28T07:49:11.580Z,3.72
2022-08-28T07:51:39.049Z,4.15
2022-08-28T07:54:06.690Z,3.72
2022-08-28T07:56:42.195Z,3.97
2022-08-28T07:59:11.995Z,3.90
2022-08-28T08:01:43.990Z,4.03
2022-08-28T08:04:15.711Z,3.95
2022-08-28T08:06:43.996Z,3.05
2022-08-28T08:09:14.500Z,4.00
2022-08-28T08:11:42.609Z,2.83
2022-08-28T08:14:10.055Z,3.55
2022-08-28T08:16:40.859Z,3.88
2022-08-28T08:19:10.316Z,3.67
2022-08-28T08:21:39.391Z,4.07
2022-08-28T08:24:07.788Z,3.78
2022-08-28T08:26:35.310Z,4.57
2022-08-28T08:29:02.894Z,4.22
2022-08-28T08:31:32.904Z,4.00
2022-08-28T08:34:03.453Z,4.07
2022-08-28T08:36:33.039Z,4.57
2022-08-28T08:39:06.427Z,4.90
2022-08-28T08:41:47.833Z,3.95
2022-08-28T08:44:33.331Z,3.85
2022-08-28T08:47:14.117Z,4.23
2022-08-28T08:49:48.238Z,4.32
2022-08-28T08:52:29.043Z,3.88
2022-08-28T08:55:08.736Z,3.78
2022-08-28T08:57:39.295Z,3.20
2022-08-28T09:00:15.069Z,3.80
2022-08-28T09:02:49.290Z,3.05
2022-08-28T09:05:21.387Z,3.00
2022-08-28T09:07:56.636Z,2.95
2022-08-28T09:10:32.836Z,3.70
2022-08-28T09:13:07.112Z,3.00
2022-08-28T09:15:40.466Z,4.95
2022-08-28T09:18:15.043Z,5.07
2022-08-28T09:20:42.958Z,3.47
2022-08-28T09:23:12.817Z,5.00
2022-08-28T09:25:52.243Z,4.33
2022-08-28T09:28:23.100Z,3.95
2022-08-28T09:30:58.924Z,3.15
2022-08-28T09:33:41.710Z,4.00
2022-08-28T09:36:29.909Z,4.10
2022-08-28T09:39:07.723Z,2.97
2022-08-28T09:41:58.832Z,3.10
2022-08-28T09:44:26.548Z,2.78
2022-08-28T09:46:54.258Z,2.50
2022-08-28T09:49:27.883Z,3.47
2022-08-28T09:51:56.294Z,2.90
2022-08-28T09:54:31.336Z,2.42
2022-08-28T09:57:00.951Z,2.40
2022-08-28T09:59:29.808Z,2.72
2022-08-28T10:02:11.252Z,2.75
2022-08-28T10:04:50.626Z,2.37
2022-08-28T10:07:26.744Z,2.40
2022-08-28T10:10:03.101Z,3.00
2022-08-28T10:12:59.331Z,2.10
2022-08-28T10:15:33.624Z,2.70
2022-08-28T10:18:28.826Z,2.60
2022-08-28T10:21:03.876Z,1.80
2022-08-28T10:23:42.710Z,2.22
2022-08-28T10:26:24.419Z,2.22
2022-08-28T10:29:03.815Z,2.72
2022-08-28T10:31:43.829Z,2.30
2022-08-28T10:34:27.542Z,2.25
2022-08-28T10:37:02.001Z,2.33
2022-08-28T10:39:40.212Z,2.58
2022-08-28T10:42:08.484Z,2.60
2022-08-28T10:44:45.020Z,2.33
2022-08-28T10:47:14.949Z,2.38
2022-08-28T10:49:45.082Z,2.20
2022-08-28T10:52:18.572Z,2.80
2022-08-28T10:54:51.479Z,2.17
2022-08-28T10:57:30.900Z,2.53
2022-08-28T11:00:04.059Z,2.25
2022-08-28T11:02:32.761Z,2.47
2022-08-28T11:05:00.386Z,1.60
2022-08-28T11:07:33.100Z,2.60
2022-08-28T11:10:23.527Z,2.10
2022-08-28T11:12:52.602Z,1.80
2022-08-28T11:15:45.415Z,2.17
2022-08-28T11:18:49.601Z,2.30
2022-08-28T11:21:24.972Z,2.20
2022-08-28T11:24:00.566Z,2.57
2022-08-28T11:26:36.423Z,2.10
2022-08-28T11:29:04.795Z,2.40
2022-08-28T11:31:42.413Z,1.70
2022-08-28T11:34:50.624Z,2.10
2022-08-28T11:37:43.550Z,2.53
2022-08-28T11:40:18.181Z,2.50
2022-08-28T11:42:48.616Z,2.25
2022-08-28T11:45:21.666Z,1.40
2022-08-28T11:47:57.641Z,1.50
2022-08-28T11:50:29.366Z,1.57
2022-08-28T11:53:25.856Z,2.35
2022-08-28T11:56:16.031Z,2.35
2022-08-28T11:59:08.087Z,1.25
2022-08-28T12:01:39.164Z,1.75
2022-08-28T12:04:12.210Z,1.10
2022-08-28T12:06:54.462Z,1.35
2022-08-28T12:09:42.636Z,1.33
2022-08-28T12:12:52.452Z,1.40
2022-08-28T12:15:41.473Z,1.58
2022-08-28T12:18:16.945Z,2.30
2022-08-28T12:21:03.840Z,1.48
2022-08-28T12:23:45.587Z,2.00
2022-08-28T12:26:23.388Z,1.60
2022-08-28T12:28:54.938Z,0.80
2022-08-28T12:32:00.284Z,1.23
2022-08-28T12:34:39.315Z,0.82
2022-08-28T12:37:28.754Z,1.10
2022-08-28T12:39:58.795Z,1.10
2022-08-28T12:42:32.334Z,1.33
2022-08-28T12:45:03.308Z,0.70
2022-08-28T12:47:31.207Z,1.30
2022-08-28T12:49:58.716Z,1.48
2022-08-28T12:52:27.533Z,1.35
2022-08-28T12:54:56.358Z,1.20
2022-08-28T12:57:25.992Z,1.00
2022-08-28T12:59:54.848Z,1.50
2022-08-28T13:02:27.609Z,1.25
2022-08-28T13:04:58.122Z,0.98
2022-08-28T13:07:30.934Z,1.40
2022-08-28T13:10:03.354Z,1.40
2022-08-28T13:12:56.016Z,1.35
2022-08-28T13:16:00.734Z,1.13
2022-08-28T13:18:36.292Z,1.15
2022-08-28T13:21:37.103Z,1.55
2022-08-28T13:24:29.335Z,1.30
2022-08-28T13:27:03.188Z,0.77
2022-08-28T13:29:31.358Z,1.52
2022-08-28T13:32:01.334Z,1.40
2022-08-28T13:34:30.968Z,1.15
2022-08-28T13:37:01.184Z,1.60
2022-08-28T13:39:32.615Z,1.60
2022-08-28T13:42:06.062Z,1.30
2022-08-28T13:44:36.658Z,1.40
2022-08-28T13:47:07.613Z,1.52
2022-08-28T13:49:35.493Z,1.10
2022-08-28T13:52:06.383Z,1.67
2022-08-28T13:54:36.630Z,1.20
2022-08-28T13:57:04.882Z,1.30
2022-08-28T13:59:33.038Z,0.90
2022-08-28T14:02:21.531Z,1.20
2022-08-28T14:04:48.988Z,1.02
2022-08-28T14:07:17.015Z,0.70
2022-08-28T14:09:45.906Z,0.80
2022-08-28T14:12:14.739Z,1.20
2022-08-28T14:14:42.293Z,1.47
2022-08-28T14:17:10.879Z,1.08
2022-08-28T14:19:38.631Z,1.13
2022-08-28T14:22:06.220Z,1.63
2022-08-28T14:24:33.728Z,1.40
2022-08-28T14:27:02.590Z,1.00
2022-08-28T14:29:31.332Z,1.33
2022-08-28T14:32:01.653Z,1.40
2022-08-28T14:34:29.299Z,1.20
2022-08-28T14:36:56.763Z,1.40
2022-08-28T14:39:26.459Z,1.30
2022-08-28T14:41:54.703Z,1.17
2022-08-28T14:44:25.107Z,1.30
2022-08-28T14:46:57.009Z,1.70
2022-08-28T14:49:26.347Z,0.68
2022-08-28T14:51:54.929Z,1.17
2022-08-28T14:54:24.339Z,1.10
2022-08-28T14:56:52.975Z,1.13
2022-08-28T14:59:24.798Z,1.10
2022-08-28T15:01:53.498Z,1.40
2022-08-28T15:04:23.877Z,1.10
2022-08-28T15:06:55.778Z,0.98
2022-08-28T15:09:23.239Z,1.30
2022-08-28T15:11:50.773Z,1.38
2022-08-28T15:14:18.230Z,1.65
2022-08-28T15:16:49.031Z,1.07
2022-08-28T15:19:18.177Z,1.33
2022-08-28T15:21:48.030Z,1.48
2022-08-28T15:24:16.763Z,1.00
2022-08-28T15:26:44.842Z,1.27
2022-08-28T15:29:12.592Z,1.27
2022-08-28T15:31:43.062Z,1.50
2022-08-28T15:34:14.326Z,1.10
2022-08-28T15:36:42.652Z,1.25
2022-08-28T15:39:28.303Z,0.80
2022-08-28T15:41:56.552Z,1.30
2022-08-28T15:44:24.058Z,0.98
2022-08-28T15:46:53.773Z,1.00
2022-08-28T15:49:24.150Z,0.80
2022-08-28T15:51:52.034Z,1.17
2022-08-28T15:54:20.225Z,1.20
2022-08-28T15:56:48.013Z,1.00
2022-08-28T15:59:18.787Z,1.00
2022-08-28T16:01:46.591Z,1.70
2022-08-28T16:04:14.976Z,1.30
2022-08-28T16:06:43.835Z,1.60
2022-08-28T16:09:11.806Z,1.85
2022-08-28T16:11:40.866Z,1.48
2022-08-28T16:14:08.318Z,1.48
2022-08-28T16:16:35.800Z,1.05
2022-08-28T16:19:04.377Z,1.03
2022-08-28T16:21:32.135Z,1.30
2022-08-28T16:24:01.145Z,1.00
2022-08-28T16:26:30.022Z,1.38
2022-08-28T16:28:57.712Z,1.02
2022-08-28T16:31:26.519Z,1.40
2022-08-28T16:33:54.029Z,1.15
2022-08-28T16:36:23.953Z,1.30
2022-08-28T16:38:52.905Z,1.20
2022-08-28T16:41:29.695Z,1.25
2022-08-28T16:43:59.852Z,1.33
2022-08-28T16:46:28.221Z,1.25
2022-08-28T16:48:56.057Z,1.50
2022-08-28T16:51:26.741Z,1.00
2022-08-28T16:53:54.391Z,1.23
2022-08-28T16:56:23.530Z,1.37
2022-08-28T16:58:53.238Z,0.93
2022-08-28T17:01:23.942Z,1.17
2022-08-28T17:03:52.436Z,1.17
2022-08-28T17:06:23.232Z,1.02
2022-08-28T17:08:55.866Z,1.30
2022-08-28T17:11:25.097Z,1.40
2022-08-28T17:13:54.242Z,1.02
2022-08-28T17:16:23.508Z,1.10
2022-08-28T17:18:52.280Z,1.23
2022-08-28T17:21:37.922Z,1.10
2022-08-28T17:24:06.662Z,1.17
2022-08-28T17:26:34.212Z,1.35
2022-08-28T17:29:03.427Z,1.40
2022-08-28T17:31:31.177Z,1.38
2022-08-28T17:33:58.774Z,1.13
2022-08-28T17:36:33.559Z,1.10
2022-08-28T17:39:02.831Z,0.95
2022-08-28T17:41:30.336Z,1.17
2022-08-28T17:43:58.160Z,1.00
2022-08-28T17:46:27.103Z,1.47
2022-08-28T17:48:56.036Z,1.00
2022-08-28T17:51:36.898Z,1.10
2022-08-28T17:54:10.726Z,1.13
2022-08-28T17:56:38.251Z,1.13
2022-08-28T17:59:05.725Z,1.03
2022-08-28T18:01:34.573Z,1.55
2022-08-28T18:04:02.186Z,1.17
2022-08-28T18:06:29.636Z,1.13
2022-08-28T18:08:57.084Z,1.27
2022-08-28T18:11:24.536Z,0.97
2022-08-28T18:13:51.978Z,1.17
2022-08-28T18:16:19.907Z,1.10
2022-08-28T18:18:48.832Z,1.25
2022-08-28T18:21:16.338Z,1.15
2022-08-28T18:23:43.830Z,1.10
2022-08-28T18:26:11.316Z,0.95
2022-08-28T18:28:39.227Z,0.90
2022-08-28T18:31:08.110Z,0.90
2022-08-28T18:33:37.034Z,1.50
2022-08-28T18:36:07.876Z,1.23
2022-08-28T18:38:35.793Z,1.10
2022-08-28T18:41:04.699Z,1.42
2022-08-28T18:43:32.831Z,0.98
2022-08-28T18:46:00.517Z,1.02
2022-08-28T18:48:28.679Z,1.03
2022-08-28T18:50:56.132Z,1.10
2022-08-28T18:53:25.322Z,1.00
2022-08-28T18:55:54.956Z,1.48
2022-08-28T18:58:23.370Z,1.10
2022-08-28T19:00:51.295Z,0.97
2022-08-28T19:03:19.029Z,1.20
2022-08-28T19:05:46.664Z,1.20
2022-08-28T19:08:14.984Z,1.08
2022-08-28T19:10:44.344Z,0.90
2022-08-28T19:13:11.800Z,1.37
2022-08-28T19:15:39.644Z,1.23
2022-08-28T19:18:07.680Z,1.08
2022-08-28T19:20:35.836Z,1.25
2022-08-28T19:23:03.354Z,1.17
2022-08-28T19:25:31.279Z,1.20
2022-08-28T19:28:01.974Z,0.90
2022-08-28T19:30:32.784Z,1.40
2022-08-28T19:33:01.167Z,1.00
2022-08-28T19:35:28.714Z,1.00
2022-08-28T19:37:56.288Z,1.07
2022-08-28T19:40:24.193Z,0.80
2022-08-28T19:42:51.840Z,1.10
2022-08-28T19:45:21.628Z,0.80
2022-08-28T19:47:49.189Z,0.95
2022-08-28T19:50:17.058Z,1.20
2022-08-28T19:52:44.812Z,1.10
2022-08-28T19:55:17.294Z,1.20
2022-08-28T19:57:46.084Z,0.90
2022-08-28T20:00:14.978Z,0.95
2022-08-28T20:02:44.241Z,0.87
2022-08-28T20:05:12.345Z,1.00
2022-08-28T20:07:39.850Z,0.90
2022-08-28T20:10:08.272Z,0.82
2022-08-28T20:12:38.450Z,0.98
2022-08-28T20:15:07.378Z,1.20
2022-08-28T20:17:35.314Z,2.03
2022-08-28T20:20:13.277Z,1.02
2022-08-28T20:22:40.849Z,1.20
2022-08-28T20:25:09.516Z,0.98
2022-08-28T20:27:37.338Z,1.00
2022-08-28T20:30:10.587Z,1.00
2022-08-28T20:32:40.866Z,1.00
2022-08-28T20:35:10.979Z,0.90
2022-08-28T20:37:44.903Z,1.10
2022-08-28T20:40:14.698Z,0.93
2022-08-28T20:42:42.269Z,1.10
2022-08-28T20:45:10.362Z,1.30
2022-08-28T20:47:37.925Z,1.17
2022-08-28T20:50:06.445Z,1.17
2022-08-28T20:52:34.262Z,1.07
2022-08-28T20:55:03.385Z,0.80
2022-08-28T20:57:30.900Z,0.80
2022-08-28T21:00:02.155Z,0.82
2022-08-28T21:02:32.728Z,0.85
2022-08-28T21:05:00.388Z,1.00
2022-08-28T21:07:28.398Z,0.90
2022-08-28T21:10:04.920Z,1.27
2022-08-28T21:12:35.701Z,0.90
2022-08-28T21:15:03.500Z,1.33
2022-08-28T21:17:31.179Z,1.07
2022-08-28T21:20:01.000Z,1.25
2022-08-28T21:22:29.897Z,1.10
2022-08-28T21:24:57.358Z,1.33
2022-08-28T21:27:25.529Z,1.30
2022-08-28T21:29:58.169Z,1.10
2022-08-28T21:32:25.876Z,1.10
2022-08-28T21:34:54.412Z,1.13
2022-08-28T21:37:22.066Z,0.90
2022-08-28T21:39:49.582Z,0.90
2022-08-28T21:42:17.094Z,0.90
2022-08-28T21:44:51.298Z,1.10
2022-08-28T21:47:21.211Z,1.10
2022-08-28T21:49:48.929Z,1.13
2022-08-28T21:52:16.497Z,1.20
2022-08-28T21:54:43.939Z,1.10
2022-08-28T21:57:11.408Z,1.20
2022-08-28T21:59:38.884Z,1.10
2022-08-28T22:02:06.587Z,1.02
2022-08-28T22:04:35.692Z,1.02
2022-08-28T22:07:03.150Z,0.93
2022-08-28T22:09:30.598Z,1.10
2022-08-28T22:11:58.192Z,1.05
2022-08-28T22:14:26.006Z,1.00
2022-08-28T22:16:53.458Z,1.02
2022-08-28T22:19:20.985Z,1.00
2022-08-28T22:22:07.495Z,1.02
2022-08-28T22:24:36.472Z,1.10
2022-08-28T22:27:04.675Z,1.88
2022-08-28T22:29:36.364Z,1.25
2022-08-28T22:32:04.392Z,1.13
2022-08-28T22:34:32.120Z,1.08
2022-08-28T22:37:00.906Z,1.05
2022-08-28T22:39:28.387Z,1.60
2022-08-28T22:41:55.858Z,1.02
2022-08-28T22:44:23.334Z,0.90
2022-08-28T22:46:50.857Z,1.30
2022-08-28T22:49:18.339Z,1.10
2022-08-28T22:51:45.814Z,1.17
2022-08-28T22:54:14.653Z,1.20
2022-08-28T22:56:42.118Z,1.10
2022-08-28T22:59:09.982Z,1.13
2022-08-28T23:01:37.649Z,1.00
2022-08-28T23:04:05.568Z,1.08
2022-08-28T23:06:33.313Z,1.00
2022-08-28T23:09:01.168Z,1.03
2022-08-28T23:11:30.098Z,1.05
2022-08-28T23:13:57.553Z,1.30
2022-08-28T23:16:25.190Z,1.23
2022-08-28T23:19:09.239Z,1.17
2022-08-28T23:21:44.017Z,1.10
2022-08-28T23:24:13.177Z,1.10
2022-08-28T23:26:42.092Z,1.25
2022-08-28T23:29:09.965Z,1.25
2022-08-28T23:31:38.204Z,1.15
2022-08-28T23:34:06.222Z,1.30
2022-08-28T23:36:35.567Z,1.20
2022-08-28T23:39:04.281Z,1.35
2022-08-28T23:41:31.886Z,1.02
2022-08-28T23:44:05.251Z,1.40
2022-08-28T23:46:36.444Z,1.00
2022-08-28T23:49:04.347Z,1.30
2022-08-28T23:51:32.454Z,1.58
2022-08-28T23:53:59.922Z,1.20
2022-08-28T23:56:28.051Z,1.25
2022-08-28T23:58:55.946Z,1.40
